Latest Coastal Weather Observations for Derby

IDW60701

Issued at 9:15 am WST Sunday 26 October 2014 (issued every 10 minutes, with the page automatically refreshed every 10 minutes)

About coastal observations | Map of coastal stations | Coastal observations for WA | Marine services | Other Formats
Station Details ID: 003032 Name: DERBY AERO Lat: -17.37 Lon: 123.66 Height: 6.2 m
Data from the previous 72 hours. | See also: Recent months at Derby
Date/Time
WST
Temp

°C
Wind Pressure Rain
since 9am
mm
Weather Cloud Vis
km
Sea
Height
m
Swell
Dir
 
Speed
knots
Gust
knots
hPa Trend Height
m
Period
s
Dir
26/09:00am 31.3 N 9 13 1013.4 - 0.0 - - - - - - -
26/08:30am 30.5 N 9 11 1013.7 - 0.0 - - - - - - -
26/08:00am 30.1 N 7 10 1013.7 - 0.0 - - - - - - -
26/07:30am 28.8 N 7 10 1013.6 - 0.0 - - - - - - -
26/07:00am 28.3 NNE 6 10 1013.6 - 0.0 - - - - - - -
26/06:30am 27.3 NNE 5 7 1013.7 - 0.0 - - - - - - -
26/06:00am 26.0 ENE 3 4 1013.5 - 0.0 - - - - - - -
26/05:30am 25.1 NE 3 3 1012.8 - 0.0 - - - - - - -
26/05:00am 25.4 ENE 3 5 1012.7 - 0.0 - - - - - - -
26/04:30am 25.3 E 4 6 1012.6 - 0.0 - - - - - - -
26/04:00am 25.1 E 3 4 1012.2 - 0.0 - - - - - - -
26/03:30am 25.1 N 4 6 1011.6 - 0.0 - - - - - - -
26/03:00am 24.9 NE 5 7 1011.4 - 0.0 - - - - - - -
26/02:30am 25.3 NW 4 5 1010.7 - 0.0 - - - - - - -
26/02:00am 25.5 NW 5 6 1010.5 - 0.0 - - - - - - -
26/01:30am 25.5 WNW 6 7 1010.7 - 0.0 - - - - - - -
26/01:00am 25.9 WNW 5 6 1010.8 - 0.0 - - - - - - -
26/12:30am 26.0 W 4 6 1011.2 - 0.0 - - - - - - -
26/12:00am 26.8 W 7 9 1011.4 - 0.0 - - - - - - -
 
Date/Time
WST
Temp

°C
Wind Pressure Rain
since 9am
mm
Weather Cloud Vis
km
Sea
Height
m
Swell
Dir
 
Speed
knots
Gust
knots
hPa Trend Height
m
Period
s
Dir
25/11:30pm 27.1 W 8 10 1011.6 - 0.0 - - - - - - -
25/11:00pm 27.3 NW 7 8 1011.8 - 0.0 - - - - - - -
25/10:30pm 27.8 WNW 8 9 1012.0 - 0.0 - - - - - - -
25/10:00pm 28.0 WNW 7 9 1012.3 - 0.0 - - - - - - -
25/09:30pm 28.7 W 10 14 1012.5 - 0.0 - - - - - - -
25/09:00pm 29.0 WNW 11 13 1012.3 - 0.0 - - - - - - -
25/08:30pm 29.4 WNW 9 12 1012.3 - 0.0 - - - - - - -
25/08:00pm 29.8 WNW 11 14 1012.1 - 0.0 - - - - - - -
25/07:30pm 30.3 WNW 12 18 1011.8 - 0.0 - - - - - - -
25/07:00pm 30.8 NW 12 15 1011.5 - 0.0 - - - - - - -
25/06:30pm 30.9 NNW 15 18 1011.0 - 0.0 - - - - - - -
25/06:00pm 30.5 NNW 16 20 1010.5 - 0.0 - - - - - - -
25/05:30pm 30.5 NNW 17 21 1010.5 - 0.0 - - - - - - -
25/05:00pm 30.8 NNW 17 22 1010.2 - 0.0 - - - - - - -
25/04:30pm 31.3 N 17 22 1010.0 - 0.0 - - - - - - -
25/04:00pm 31.9 N 17 21 1010.0 - 0.0 - - - - - - -
25/03:30pm 32.2 NNW 18 21 1010.3 - 0.0 - - - - - - -
25/03:00pm 32.0 NNW 17 21 1010.3 - 0.0 - - - - - - -
25/02:30pm 33.5 NNW 16 22 1010.7 - 0.0 - - - - - - -
25/02:00pm 33.2 NNW 15 18 1011.0 - 0.0 - - - - - - -
25/01:30pm 33.4 NNW 15 19 1011.2 - 0.0 - - - - - - -
25/01:00pm 33.9 NW 11 16 1011.5 - 0.0 - - - - - - -
25/12:30pm 33.8 NW 8 14 1011.9 - 0.0 - - - - - - -
25/12:00pm 33.6 NW 7 13 1012.6 - 0.0 - - - - - - -
25/11:30am 33.6 NW 7 11 1013.3 - 0.0 - - - - - - -
25/11:00am 32.7 NNW 6 10 1014.0 - 0.0 - - - - - - -
25/10:30am 31.5 WNW 8 13 1014.4 - 0.0 - - - - - - -
25/10:00am 31.5 NW 7 10 1014.8 - 0.0 - - - - - - -
25/09:30am 30.8 WNW 9 12 1014.9 - 0.0 - - - - - - -
25/09:00am 30.0 NW 9 11 1015.4 - 0.0 - - - - - - -
25/08:30am 29.7 WNW 9 15 1015.5 - 0.0 - - - - - - -
25/08:00am 29.2 WNW 8 12 1015.8 - 0.0 - - - - - - -
25/07:30am 28.8 NW 8 10 1015.5 - 0.0 - - - - - - -
25/07:00am 27.7 WNW 9 11 1015.0 - 0.0 - - - - - - -
25/06:30am 27.4 NW 8 10 1014.6 - 0.0 - - - - - - -
25/06:00am 26.8 NW 7 9 1014.2 - 0.0 - - - - - - -
25/05:30am 26.1 NW 7 8 1013.8 - 0.0 - - - - - - -
25/05:00am 26.2 NW 7 8 1013.5 - 0.0 - - - - - - -
25/04:30am 26.5 NW 8 10 1013.2 - 0.0 - - - - - - -
25/04:00am 26.5 NW 8 10 1012.8 - 0.0 - - - - - - -
25/03:30am 26.6 NNW 11 13 1012.0 - 0.0 - - - - - - -
25/03:00am 26.7 NNW 10 12 1012.0 - 0.0 - - - - - - -
25/02:30am 26.8 NW 9 11 1011.3 - 0.0 - - - - - - -
25/02:00am 26.8 NW 10 12 1011.0 - 0.0 - - - - - - -
25/01:30am 26.8 NW 10 12 1011.1 - 0.0 - - - - - - -
25/01:00am 26.8 NW 9 11 1011.1 - 0.0 - - - - - - -
25/12:30am 26.9 WNW 9 11 1011.5 - 0.0 - - - - - - -
25/12:00am 26.8 WNW 7 9 1012.2 - 0.0 - - - - - - -
 
Date/Time
WST
Temp

°C
Wind Pressure Rain
since 9am
mm
Weather Cloud Vis
km
Sea
Height
m
Swell
Dir
 
Speed
knots
Gust
knots
hPa Trend Height
m
Period
s
Dir
24/11:30pm 27.3 W 7 9 1012.3 - 0.0 - - - - - - -
24/11:00pm 27.8 NW 7 9 1012.0 - 0.0 - - - - - - -
24/10:30pm 28.0 NW 8 9 1012.0 - 0.0 - - - - - - -
24/10:00pm 28.4 NW 7 9 1012.1 - 0.0 - - - - - - -
24/09:30pm 28.4 WNW 6 7 1012.1 - 0.0 - - - - - - -
24/09:00pm 29.4 NW 8 9 1012.0 - 0.0 - - - - - - -
24/08:30pm 29.9 NW 8 9 1011.6 - 0.0 - - - - - - -
24/08:00pm 30.3 NNW 9 11 1011.3 - 0.0 - - - - - - -
24/07:30pm 30.5 NW 9 11 1011.0 - 0.0 - - - - - - -
24/07:00pm 30.3 NNW 11 13 1010.7 - 0.0 - - - - - - -
24/06:30pm 30.2 NNW 12 15 1010.6 - 0.0 - - - - - - -
24/06:00pm 30.3 N 12 14 1010.2 - 0.0 - - - - - - -
24/05:30pm 30.3 N 12 15 1009.8 - 0.0 - - - - - - -
24/05:00pm 31.3 NNW 13 16 1009.6 - 0.0 - - - - - - -
24/04:30pm 32.0 NNW 15 17 1009.5 - 0.0 - - - - - - -
24/04:00pm 32.8 NNW 15 19 1009.5 - 0.0 - - - - - - -
24/03:30pm 32.5 NNW 14 18 1009.7 - 0.0 - - - - - - -
24/03:00pm 33.0 NNW 15 19 1010.0 - 0.0 - - - - - - -
24/02:30pm 34.2 NNW 15 18 1010.0 - 0.0 - - - - - - -
24/02:00pm 33.7 NNW 14 18 1010.3 - 0.0 - - - - - - -
24/01:30pm 34.3 NNW 12 15 1010.6 - 0.0 - - - - - - -
24/01:00pm 34.4 NW 9 14 1010.9 - 0.0 - - - - - - -
24/12:30pm 33.1 N 8 10 1011.4 - 0.0 - - - - - - -
24/12:00pm 34.1 NNW 8 15 1011.9 - 0.0 - - - - - - -
24/11:30am 33.2 NNW 9 14 1012.2 - 0.0 - - - - - - -
24/11:00am 32.2 NW 8 13 1012.7 - 0.0 - - - - - - -
24/10:30am 32.1 NW 9 13 1013.1 - 0.0 - - - - - - -
24/10:00am 31.5 NW 9 13 1013.5 - 0.0 - - - - - - -
24/09:30am 30.6 NW 9 13 1013.8 - 0.0 - - - - - - -
24/09:00am 30.4 NW 7 11 1014.0 - 0.0 - - - - - - -
24/08:30am 30.1 WNW 7 11 1014.0 - 0.0 - - - - - - -
24/08:00am 29.3 WNW 5 9 1013.9 - 0.0 - - - - - - -
24/07:30am 29.3 NW 6 9 1013.9 - 0.0 - - - - - - -
24/07:00am 28.5 NW 5 9 1013.7 - 0.0 - - - - - - -
24/06:30am 28.1 W 6 8 1013.3 - 0.0 - - - - - - -
24/06:00am 27.4 NW 6 7 1012.7 - 0.0 - - - - - - -
24/05:30am 26.9 WNW 6 8 1012.5 - 0.0 - - - - - - -
24/05:00am 27.1 NW 7 9 1012.2 - 0.0 - - - - - - -
24/04:30am 27.1 NNW 8 10 1011.9 - 0.0 - - - - - - -
24/04:00am 27.0 NW 7 8 1011.5 - 0.0 - - - - - - -
24/03:30am 27.0 NW 8 10 1011.1 - 0.0 - - - - - - -
24/03:00am 27.0 NW 10 12 1010.6 - 0.0 - - - - - - -
24/02:30am 27.0 WNW 10 13 1010.4 - 0.0 - - - - - - -
24/02:00am 26.8 WNW 11 13 1010.3 - 0.0 - - - - - - -
24/01:30am 26.8 WNW 12 15 1010.1 - 0.0 - - - - - - -
24/01:00am 27.0 WNW 13 17 1010.4 - 0.0 - - - - - - -
24/12:30am 27.3 WNW 15 18 1010.9 - 0.0 - - - - - - -
24/12:00am 27.5 WNW 13 17 1011.4 - 0.0 - - - - - - -
 
Date/Time
WST
Temp

°C
Wind Pressure Rain
since 9am
mm
Weather Cloud Vis
km
Sea
Height
m
Swell
Dir
 
Speed
knots
Gust
knots
hPa Trend Height
m
Period
s
Dir
23/11:30pm 27.5 WNW 12 14 1011.7 - 0.0 - - - - - - -
23/11:00pm 27.7 NW 13 17 1011.9 - 0.0 - - - - - - -
23/10:30pm 28.0 WNW 13 16 1011.9 - 0.0 - - - - - - -
23/10:00pm 28.1 NW 7 8 1012.8 - 0.0 - - - - - - -
23/09:30pm 28.1 NNW 6 7 1013.0 - 0.0 - - - - - - -
23/09:00pm 28.3 N 7 8 1013.0 - 0.0 - - - - - - -
23/08:30pm 28.6 NE 6 9 1013.1 - 0.0 - - - - - - -
23/08:00pm 29.2 ENE 6 7 1013.2 - 0.0 - - - - - - -
23/07:30pm 29.9 E 8 13 1013.1 - 0.0 - - - - - - -
23/07:00pm 29.7 ENE 10 13 1013.2 - 0.0 - - - - - - -
23/06:30pm 29.1 N 13 16 1011.7 - 0.0 - - - - - - -
23/06:00pm 29.4 N 17 23 1010.9 - 0.0 - - - - - - -
23/05:30pm 30.0 N 17 22 1009.8 - 0.0 - - - - - - -
23/05:00pm 31.0 N 18 23 1009.2 - 0.0 - - - - - - -
23/04:30pm 31.4 N 19 24 1008.7 - 0.0 - - - - - - -
23/04:00pm 31.6 NNW 19 24 1008.5 - 0.0 - - - - - - -
23/03:30pm 31.7 NNW 20 26 1008.6 - 0.0 - - - - - - -
23/03:00pm 32.5 NNW 19 23 1008.9 - 0.0 - - - - - - -
23/02:30pm 32.9 NNW 21 24 1009.2 - 0.0 - - - - - - -
23/02:00pm 32.8 NNW 20 24 1009.4 - 0.0 - - - - - - -
23/01:30pm 33.9 NNW 16 19 1009.7 - 0.0 - - - - - - -
23/01:00pm 33.6 N 16 20 1010.1 - 0.0 - - - - - - -
23/12:30pm 34.0 NNW 13 18 1010.7 - 0.0 - - - - - - -
23/12:00pm 33.6 N 11 15 1011.2 - 0.0 - - - - - - -
23/11:30am 32.8 N 11 17 1011.7 - 0.0 - - - - - - -
23/11:00am 32.8 N 11 17 1012.5 - 0.0 - - - - - - -
23/10:30am 32.1 NNW 14 18 1012.4 - 0.0 - - - - - - -
23/10:00am 31.5 NNW 14 18 1012.7 - 0.0 - - - - - - -
23/09:30am 30.3 NNW 13 18 1013.1 - 0.0 - - - - - - -

Other Formats:

Comma delimited format used in spreadsheet applications
http://www.bom.gov.au/fwo/IDW60701/IDW60701.95205.axf

JavaScript Object Notation format (JSON) in row-major order
http://www.bom.gov.au/fwo/IDW60701/IDW60701.95205.json